createdAt,value
2023-04-11T00:00:33.420Z,12.94
2023-04-11T00:01:33.389Z,13.01
2023-04-11T00:02:33.498Z,13.04
2023-04-11T00:03:33.638Z,12.95
2023-04-11T00:04:33.430Z,13.00
2023-04-11T00:05:33.336Z,12.94
2023-04-11T00:06:33.345Z,12.87
2023-04-11T00:07:33.350Z,12.83
2023-04-11T00:08:33.499Z,12.85
2023-04-11T00:09:33.334Z,12.80
2023-04-11T00:10:33.294Z,12.87
2023-04-11T00:11:33.290Z,12.83
2023-04-11T00:12:33.314Z,12.85
2023-04-11T00:13:33.272Z,12.83
2023-04-11T00:14:33.252Z,12.83
2023-04-11T00:15:33.243Z,12.87
2023-04-11T00:16:33.257Z,12.76
2023-04-11T00:17:33.212Z,12.76
2023-04-11T00:18:33.193Z,12.75
2023-04-11T00:19:33.214Z,12.64
2023-04-11T00:20:33.187Z,12.60
2023-04-11T00:21:33.182Z,12.57
2023-04-11T00:22:33.157Z,12.55
2023-04-11T00:23:33.182Z,12.42
2023-04-11T00:24:33.133Z,12.47
2023-04-11T00:25:33.185Z,12.42
2023-04-11T00:26:33.125Z,12.29
2023-04-11T00:27:33.145Z,12.22
2023-04-11T00:28:33.155Z,12.13
2023-04-11T00:29:33.121Z,12.04
2023-04-11T00:30:33.187Z,12.02
2023-04-11T00:31:33.148Z,12.04
2023-04-11T00:32:33.130Z,11.90
2023-04-11T00:33:33.072Z,11.81
2023-04-11T00:34:33.078Z,11.73
2023-04-11T00:35:33.084Z,11.69
2023-04-11T00:36:33.081Z,11.55
2023-04-11T00:37:33.039Z,11.55
2023-04-11T00:38:33.035Z,11.62
2023-04-11T00:39:33.018Z,11.45
2023-04-11T00:40:33.014Z,11.45
2023-04-11T00:41:32.985Z,11.47
2023-04-11T00:42:32.999Z,11.36
2023-04-11T00:43:32.981Z,11.36
2023-04-11T00:44:32.980Z,11.35
2023-04-11T00:45:33.026Z,11.19
2023-04-11T00:46:32.988Z,11.10
2023-04-11T00:47:33.011Z,11.02
2023-04-11T00:48:32.948Z,11.15
2023-04-11T00:49:32.932Z,10.94
2023-04-11T00:50:32.912Z,11.00
2023-04-11T00:51:32.907Z,10.86
2023-04-11T00:52:32.879Z,10.90
2023-04-11T00:53:32.964Z,10.76
2023-04-11T00:54:32.853Z,10.82
2023-04-11T00:55:32.866Z,10.69
2023-04-11T00:56:32.879Z,10.61
2023-04-11T00:57:32.833Z,10.68
2023-04-11T00:58:32.829Z,10.68
2023-04-11T00:59:32.841Z,10.61
2023-04-11T01:00:32.797Z,10.53
2023-04-11T01:01:32.924Z,10.60
2023-04-11T01:02:32.913Z,10.57
2023-04-11T01:03:32.882Z,10.42
2023-04-11T01:04:32.922Z,10.48
2023-04-11T01:05:32.780Z,10.41
2023-04-11T01:06:32.778Z,10.46
2023-04-11T01:07:32.779Z,10.51
2023-04-11T01:08:32.782Z,10.42
2023-04-11T01:09:32.756Z,10.48
2023-04-11T01:10:32.738Z,10.48
2023-04-11T01:11:32.782Z,10.46
2023-04-11T01:12:32.720Z,10.38
2023-04-11T01:13:32.742Z,10.46
2023-04-11T01:14:32.721Z,10.44
2023-04-11T01:15:32.706Z,10.41
2023-04-11T01:16:32.721Z,10.35
2023-04-11T01:17:32.676Z,10.35
2023-04-11T01:18:32.657Z,10.37
2023-04-11T01:19:32.650Z,10.34
2023-04-11T01:20:32.641Z,10.35
2023-04-11T01:21:32.631Z,10.37
2023-04-11T01:22:32.621Z,10.30
2023-04-11T01:23:32.893Z,10.33
2023-04-11T01:24:32.604Z,10.35
2023-04-11T01:25:32.605Z,10.37
2023-04-11T01:26:32.584Z,10.35
2023-04-11T01:27:32.553Z,10.35
2023-04-11T01:28:32.543Z,10.31
2023-04-11T01:29:32.576Z,10.35
2023-04-11T01:30:32.569Z,10.33
2023-04-11T01:31:32.524Z,10.35
2023-04-11T01:32:32.552Z,10.31
2023-04-11T01:33:32.509Z,10.34
2023-04-11T01:34:32.501Z,10.35
2023-04-11T01:35:32.521Z,10.33
2023-04-11T01:36:32.473Z,10.33
2023-04-11T01:37:32.441Z,10.37
2023-04-11T01:38:32.486Z,10.25
2023-04-11T01:39:32.529Z,10.28
2023-04-11T01:40:32.421Z,10.23
2023-04-11T01:41:32.433Z,10.25
2023-04-11T01:42:32.414Z,10.22
2023-04-11T01:43:32.414Z,10.26
2023-04-11T01:44:32.387Z,10.31
2023-04-11T01:45:32.378Z,10.19
2023-04-11T01:46:32.373Z,10.15
2023-04-11T01:47:32.666Z,10.19
2023-04-11T01:48:32.436Z,10.05
2023-04-11T01:49:32.320Z,10.16
2023-04-11T01:50:32.304Z,10.09
2023-04-11T01:51:32.299Z,10.15
2023-04-11T01:52:32.282Z,10.19
2023-04-11T01:53:32.273Z,10.19
2023-04-11T01:54:32.273Z,10.15
2023-04-11T01:55:32.295Z,10.15
2023-04-11T01:56:32.282Z,10.12
2023-04-11T01:57:32.227Z,10.20
2023-04-11T01:58:32.222Z,10.15
2023-04-11T01:59:32.216Z,10.07
2023-04-11T02:00:32.221Z,10.12
2023-04-11T02:01:32.271Z,10.10
2023-04-11T02:02:32.329Z,10.02
2023-04-11T02:03:32.328Z,10.07
2023-04-11T02:04:32.376Z,10.09
2023-04-11T02:05:32.161Z,10.02
2023-04-11T02:06:32.142Z,10.04
2023-04-11T02:07:32.354Z,9.99
2023-04-11T02:08:32.132Z,10.05
2023-04-11T02:09:32.105Z,10.01
2023-04-11T02:10:32.105Z,10.04
2023-04-11T02:11:32.106Z,10.09
2023-04-11T02:12:32.096Z,10.09
2023-04-11T02:13:32.068Z,10.10
2023-04-11T02:14:32.046Z,10.04
2023-04-11T02:15:32.064Z,10.05
2023-04-11T02:16:32.038Z,10.02
2023-04-11T02:17:32.065Z,10.07
2023-04-11T02:18:32.024Z,10.12
2023-04-11T02:19:32.207Z,10.04
2023-04-11T02:20:31.993Z,10.07
2023-04-11T02:21:31.979Z,10.07
2023-04-11T02:22:31.982Z,10.02
2023-04-11T02:23:31.975Z,10.15
2023-04-11T02:24:31.984Z,10.02
2023-04-11T02:25:31.950Z,9.98
2023-04-11T02:26:31.945Z,9.98
2023-04-11T02:27:31.966Z,10.16
2023-04-11T02:28:31.911Z,10.07
2023-04-11T02:29:31.924Z,9.99
2023-04-11T02:30:31.910Z,10.05
2023-04-11T02:31:31.948Z,10.13
2023-04-11T02:32:31.908Z,10.04
2023-04-11T02:33:31.867Z,10.13
2023-04-11T02:34:31.852Z,10.02
2023-04-11T02:35:31.883Z,10.15
2023-04-11T02:36:31.846Z,10.15
2023-04-11T02:37:31.811Z,10.04
2023-04-11T02:38:31.814Z,9.99
2023-04-11T02:39:31.815Z,10.07
2023-04-11T02:40:31.803Z,10.16
2023-04-11T02:41:31.785Z,10.12
2023-04-11T02:42:31.761Z,10.12
2023-04-11T02:43:31.781Z,10.10
2023-04-11T02:44:31.752Z,10.04
2023-04-11T02:45:31.746Z,10.05
2023-04-11T02:46:31.797Z,10.12
2023-04-11T02:47:31.761Z,10.12
2023-04-11T02:48:31.727Z,10.17
2023-04-11T02:49:31.702Z,10.20
2023-04-11T02:50:31.703Z,10.15
2023-04-11T02:51:31.695Z,10.12
2023-04-11T02:52:31.668Z,10.13
2023-04-11T02:53:31.653Z,10.15
2023-04-11T02:54:31.657Z,10.12
2023-04-11T02:55:31.627Z,10.15
2023-04-11T02:56:31.636Z,10.12
2023-04-11T02:57:31.625Z,10.12
2023-04-11T02:58:31.608Z,10.23
2023-04-11T02:59:31.635Z,10.13
2023-04-11T03:00:31.575Z,10.13
2023-04-11T03:01:31.597Z,10.12
2023-04-11T03:02:31.790Z,10.07
2023-04-11T03:03:31.812Z,10.09
2023-04-11T03:04:31.768Z,10.22
2023-04-11T03:05:31.528Z,10.19
2023-04-11T03:06:31.534Z,10.15
2023-04-11T03:07:31.501Z,10.15
2023-04-11T03:08:31.498Z,10.15
2023-04-11T03:09:31.484Z,10.15
2023-04-11T03:10:31.497Z,10.16
2023-04-11T03:11:31.512Z,10.22
2023-04-11T03:12:31.450Z,10.19
2023-04-11T03:13:31.656Z,10.23
2023-04-11T03:14:31.431Z,10.23
2023-04-11T03:15:31.466Z,10.25
2023-04-11T03:16:31.450Z,10.22
2023-04-11T03:17:31.449Z,10.22
2023-04-11T03:18:31.406Z,10.31
2023-04-11T03:19:31.382Z,10.23
2023-04-11T03:20:31.364Z,10.20
2023-04-11T03:21:31.354Z,10.23
2023-04-11T03:22:31.347Z,10.28
2023-04-11T03:23:31.328Z,10.16
2023-04-11T03:24:31.325Z,10.26
2023-04-11T03:25:31.320Z,10.22
2023-04-11T03:26:31.300Z,10.25
2023-04-11T03:27:31.286Z,10.31
2023-04-11T03:28:31.292Z,10.26
2023-04-11T03:29:31.274Z,10.37
2023-04-11T03:30:31.264Z,10.31
2023-04-11T03:31:31.386Z,10.30
2023-04-11T03:32:31.314Z,10.28
2023-04-11T03:33:31.244Z,10.23
2023-04-11T03:34:31.225Z,10.25
2023-04-11T03:35:31.218Z,10.15
2023-04-11T03:36:31.201Z,10.20
2023-04-11T03:37:31.191Z,10.22
2023-04-11T03:38:31.196Z,10.19
2023-04-11T03:39:31.167Z,10.13
2023-04-11T03:40:31.173Z,10.17
2023-04-11T03:41:31.157Z,10.17
2023-04-11T03:42:31.141Z,10.22
2023-04-11T03:43:31.126Z,10.09
2023-04-11T03:44:31.127Z,10.15
2023-04-11T03:45:31.114Z,10.17
2023-04-11T03:46:31.132Z,10.13
2023-04-11T03:47:31.150Z,10.20
2023-04-11T03:48:31.479Z,10.05
2023-04-11T03:49:31.078Z,10.13
2023-04-11T03:50:31.077Z,10.10
2023-04-11T03:51:31.051Z,10.19
2023-04-11T03:52:31.043Z,10.20
2023-04-11T03:53:31.072Z,10.10
2023-04-11T03:54:31.028Z,10.17
2023-04-11T03:55:31.017Z,10.15
2023-04-11T03:56:31.033Z,10.17
2023-04-11T03:57:30.995Z,10.16
2023-04-11T03:58:30.969Z,10.13
2023-04-11T03:59:30.963Z,10.10
2023-04-11T04:00:30.948Z,10.10
2023-04-11T04:01:30.955Z,10.09
2023-04-11T04:02:31.068Z,10.16
2023-04-11T04:03:31.223Z,10.16
2023-04-11T04:04:31.048Z,10.20
2023-04-11T04:05:30.906Z,10.16
2023-04-11T04:06:30.896Z,10.09
2023-04-11T04:07:30.876Z,10.09
2023-04-11T04:08:30.881Z,10.13
2023-04-11T04:09:30.872Z,10.16
2023-04-11T04:10:31.058Z,10.13
2023-04-11T04:11:30.838Z,10.13
2023-04-11T04:12:30.830Z,10.15
2023-04-11T04:13:30.830Z,10.12
2023-04-11T04:14:30.804Z,10.13
2023-04-11T04:15:30.797Z,10.12
2023-04-11T04:16:30.814Z,10.13
2023-04-11T04:17:30.819Z,10.16
2023-04-11T04:18:30.762Z,10.17
2023-04-11T04:19:30.785Z,10.15
2023-04-11T04:20:30.751Z,10.15
2023-04-11T04:21:30.738Z,10.09
2023-04-11T04:22:30.724Z,10.07
2023-04-11T04:23:30.707Z,10.15
2023-04-11T04:24:30.698Z,10.17
2023-04-11T04:25:30.710Z,10.15
2023-04-11T04:26:30.694Z,10.19
2023-04-11T04:27:30.690Z,10.16
2023-04-11T04:28:30.674Z,10.16
2023-04-11T04:29:30.652Z,10.15
2023-04-11T04:30:30.660Z,10.17
2023-04-11T04:31:30.670Z,10.17
2023-04-11T04:32:30.711Z,10.09
2023-04-11T04:33:30.617Z,10.12
2023-04-11T04:34:30.613Z,10.16
2023-04-11T04:35:30.680Z,10.19
2023-04-11T04:36:30.584Z,10.20
2023-04-11T04:37:30.589Z,10.16
2023-04-11T04:38:30.583Z,10.15
2023-04-11T04:39:30.562Z,10.17
2023-04-11T04:40:30.543Z,10.17
2023-04-11T04:41:30.537Z,10.10
2023-04-11T04:42:30.536Z,10.17
2023-04-11T04:43:30.514Z,10.16
2023-04-11T04:44:30.523Z,10.19
2023-04-11T04:45:30.554Z,10.16
2023-04-11T04:46:30.554Z,10.17
2023-04-11T04:47:30.512Z,10.09
2023-04-11T04:48:30.458Z,10.05
2023-04-11T04:49:30.472Z,10.13
2023-04-11T04:50:30.441Z,10.12
2023-04-11T04:51:30.490Z,10.04
2023-04-11T04:52:30.436Z,10.07
2023-04-11T04:53:30.399Z,10.05
2023-04-11T04:54:30.404Z,10.04
2023-04-11T04:55:30.386Z,10.09
2023-04-11T04:56:30.392Z,10.09
2023-04-11T04:57:30.370Z,10.05
2023-04-11T04:58:30.373Z,10.07
2023-04-11T04:59:30.570Z,10.07
2023-04-11T05:00:30.334Z,10.05
2023-04-11T05:01:30.408Z,10.02
2023-04-11T05:02:30.601Z,10.01
2023-04-11T05:03:30.544Z,10.02
2023-04-11T05:04:30.429Z,10.12
2023-04-11T05:05:30.314Z,10.01
2023-04-11T05:06:30.319Z,10.09
2023-04-11T05:07:30.284Z,10.02
2023-04-11T05:08:30.286Z,9.97
2023-04-11T05:09:30.260Z,10.02
2023-04-11T05:10:30.253Z,9.89
2023-04-11T05:11:30.273Z,9.98
2023-04-11T05:12:30.252Z,9.98
2023-04-11T05:13:30.195Z,9.98
2023-04-11T05:14:30.202Z,9.95
2023-04-11T05:15:30.194Z,9.91
2023-04-11T05:16:30.249Z,9.95
2023-04-11T05:17:30.301Z,9.98
2023-04-11T05:18:30.288Z,9.99
2023-04-11T05:19:30.173Z,10.01
2023-04-11T05:20:30.207Z,9.97
2023-04-11T05:21:30.142Z,10.02
2023-04-11T05:22:30.211Z,9.89
2023-04-11T05:23:30.223Z,9.94
2023-04-11T05:24:30.156Z,9.86
2023-04-11T05:25:30.314Z,9.80
2023-04-11T05:26:30.126Z,9.83
2023-04-11T05:27:30.076Z,9.76
2023-04-11T05:28:30.057Z,9.72
2023-04-11T05:29:30.074Z,9.72
2023-04-11T05:30:30.087Z,9.73
2023-04-11T05:31:30.069Z,9.72
2023-04-11T05:32:30.106Z,9.69
2023-04-11T05:33:30.125Z,9.69
2023-04-11T05:34:30.013Z,9.76
2023-04-11T05:35:30.094Z,9.73
2023-04-11T05:36:30.220Z,9.72
2023-04-11T05:37:29.986Z,9.76
2023-04-11T05:38:30.012Z,9.83
2023-04-11T05:39:29.966Z,9.86
2023-04-11T05:40:29.948Z,9.83
2023-04-11T05:41:29.963Z,9.83
2023-04-11T05:42:29.923Z,9.82
2023-04-11T05:43:30.038Z,9.92
2023-04-11T05:44:29.892Z,9.84
2023-04-11T05:45:29.890Z,9.80
2023-04-11T05:46:30.004Z,9.82
2023-04-11T05:47:29.900Z,9.82
2023-04-11T05:48:29.851Z,9.84
2023-04-11T05:49:29.890Z,9.86
2023-04-11T05:50:29.884Z,9.79
2023-04-11T05:51:29.886Z,9.82
2023-04-11T05:52:29.814Z,9.77
2023-04-11T05:53:29.810Z,9.79
2023-04-11T05:54:29.810Z,9.83
2023-04-11T05:55:29.827Z,9.79
2023-04-11T05:56:29.896Z,9.61
2023-04-11T05:57:29.762Z,9.68
2023-04-11T05:58:29.758Z,9.68
2023-04-11T05:59:29.761Z,9.76
2023-04-11T06:00:29.717Z,9.72
2023-04-11T06:01:29.790Z,9.74
2023-04-11T06:02:29.887Z,9.72
2023-04-11T06:03:29.818Z,9.69
2023-04-11T06:04:29.930Z,9.72
2023-04-11T06:05:29.673Z,9.69
2023-04-11T06:06:29.969Z,9.64
2023-04-11T06:07:29.701Z,9.68
2023-04-11T06:08:29.667Z,9.76
2023-04-11T06:09:29.878Z,9.76
2023-04-11T06:10:29.658Z,9.74
2023-04-11T06:11:29.739Z,9.73
2023-04-11T06:12:29.630Z,9.72
2023-04-11T06:13:29.683Z,9.79
2023-04-11T06:14:29.609Z,9.79
2023-04-11T06:15:29.632Z,9.83
2023-04-11T06:16:29.673Z,9.79
2023-04-11T06:17:29.611Z,9.84
2023-04-11T06:18:29.792Z,9.86
2023-04-11T06:19:29.546Z,9.80
2023-04-11T06:20:29.617Z,9.80
2023-04-11T06:21:29.769Z,9.87
2023-04-11T06:22:29.527Z,9.87
2023-04-11T06:23:29.535Z,9.91
2023-04-11T06:24:29.693Z,9.86
2023-04-11T06:25:29.474Z,9.84
2023-04-11T06:26:29.567Z,9.98
2023-04-11T06:27:29.555Z,9.97
2023-04-11T06:28:29.564Z,9.92
2023-04-11T06:29:29.528Z,9.91
2023-04-11T06:30:29.523Z,9.91
2023-04-11T06:31:29.486Z,9.98
2023-04-11T06:32:29.491Z,9.94
2023-04-11T06:33:29.506Z,9.99
2023-04-11T06:34:29.576Z,9.99
2023-04-11T06:35:29.410Z,10.09
2023-04-11T06:36:29.380Z,9.98
2023-04-11T06:37:29.395Z,10.01
2023-04-11T06:38:29.367Z,10.01
2023-04-11T06:39:29.334Z,9.95
2023-04-11T06:40:29.457Z,9.94
2023-04-11T06:41:29.462Z,9.98
2023-04-11T06:42:29.358Z,9.97
2023-04-11T06:43:29.443Z,9.95
2023-04-11T06:44:29.346Z,9.95
2023-04-11T06:45:29.296Z,9.95
2023-04-11T06:46:29.308Z,9.98
2023-04-11T06:47:29.315Z,10.01
2023-04-11T06:48:29.231Z,10.10
2023-04-11T06:49:29.294Z,10.07
2023-04-11T06:50:29.231Z,10.05
2023-04-11T06:51:29.231Z,10.02
2023-04-11T06:52:29.201Z,10.10
2023-04-11T06:53:29.239Z,10.15
2023-04-11T06:54:29.180Z,10.17
2023-04-11T06:55:29.217Z,10.19
2023-04-11T06:56:29.158Z,10.15
2023-04-11T06:57:29.142Z,10.19
2023-04-11T06:58:29.122Z,10.19
2023-04-11T06:59:29.151Z,10.25
2023-04-11T07:00:29.209Z,10.20
2023-04-11T07:01:29.144Z,10.28
2023-04-11T07:02:29.314Z,10.25
2023-04-11T07:03:29.185Z,10.37
2023-04-11T07:04:29.253Z,10.31
2023-04-11T07:05:29.280Z,10.37
2023-04-11T07:06:29.158Z,10.38
2023-04-11T07:07:29.060Z,10.48
2023-04-11T07:08:29.116Z,10.44
2023-04-11T07:09:29.066Z,10.51
2023-04-11T07:10:29.061Z,10.41
2023-04-11T07:11:29.007Z,10.59
2023-04-11T07:12:28.987Z,10.64
2023-04-11T07:13:29.094Z,10.64
2023-04-11T07:14:28.998Z,10.68
2023-04-11T07:15:28.988Z,10.76
2023-04-11T07:16:29.047Z,10.92
2023-04-11T07:17:29.008Z,11.11
2023-04-11T07:18:29.150Z,11.40
2023-04-11T07:19:28.924Z,11.45
2023-04-11T07:20:28.901Z,11.78
2023-04-11T07:21:28.924Z,11.97
2023-04-11T07:22:28.945Z,12.22
2023-04-11T07:23:28.986Z,12.31
2023-04-11T07:24:29.135Z,12.28
2023-04-11T07:25:29.002Z,12.39
2023-04-11T07:26:28.854Z,12.40
2023-04-11T07:27:28.886Z,12.07
2023-04-11T07:28:28.860Z,11.99
2023-04-11T07:29:28.930Z,11.97
2023-04-11T07:30:28.796Z,12.07
2023-04-11T07:31:29.131Z,12.24
2023-04-11T07:32:28.824Z,12.37
2023-04-11T07:33:28.930Z,12.32
2023-04-11T07:34:29.018Z,12.28
2023-04-11T07:35:28.992Z,12.31
2023-04-11T07:36:28.777Z,12.42
2023-04-11T07:37:28.995Z,12.58
2023-04-11T07:38:28.814Z,12.78
2023-04-11T07:39:28.768Z,12.97
2023-04-11T07:40:28.772Z,13.04
2023-04-11T07:41:28.735Z,13.27
2023-04-11T07:42:28.728Z,13.33
2023-04-11T07:43:28.722Z,13.54
2023-04-11T07:44:28.697Z,13.71
2023-04-11T07:45:28.762Z,13.97
2023-04-11T07:46:28.673Z,13.87
2023-04-11T07:47:28.713Z,13.92
2023-04-11T07:48:28.688Z,14.14
2023-04-11T07:49:28.647Z,14.17
2023-04-11T07:50:28.694Z,14.59
2023-04-11T07:51:28.647Z,14.73
2023-04-11T07:52:28.747Z,14.97
2023-04-11T07:53:28.679Z,14.88
2023-04-11T07:54:28.708Z,14.45
2023-04-11T07:55:28.672Z,14.50
2023-04-11T07:56:28.619Z,14.63
2023-04-11T07:57:28.609Z,14.50
2023-04-11T07:58:28.765Z,14.18
2023-04-11T07:59:28.693Z,13.83
2023-04-11T08:00:28.769Z,13.75
2023-04-11T08:01:28.595Z,13.74
2023-04-11T08:02:28.676Z,13.85
2023-04-11T08:03:28.910Z,13.85
2023-04-11T08:04:28.776Z,13.87
2023-04-11T08:05:28.722Z,13.85
2023-04-11T08:06:28.554Z,13.85
2023-04-11T08:07:28.663Z,13.75
2023-04-11T08:08:28.514Z,13.74
2023-04-11T08:09:28.629Z,13.68
2023-04-11T08:10:28.535Z,13.85
2023-04-11T08:11:28.655Z,13.77
2023-04-11T08:12:28.587Z,13.75
2023-04-11T08:13:28.631Z,14.18
2023-04-11T08:14:28.554Z,14.12
2023-04-11T08:15:28.546Z,14.22
2023-04-11T08:16:28.613Z,14.11
2023-04-11T08:17:29.217Z,14.15
2023-04-11T08:18:28.484Z,13.77
2023-04-11T08:19:28.546Z,13.74
2023-04-11T08:20:28.456Z,13.75
2023-04-11T08:21:28.508Z,13.39
2023-04-11T08:22:28.489Z,13.12
2023-04-11T08:23:28.554Z,13.04
2023-04-11T08:24:28.530Z,13.00
2023-04-11T08:25:28.566Z,13.03
2023-04-11T08:26:28.454Z,12.90
2023-04-11T08:27:28.424Z,12.97
2023-04-11T08:28:28.505Z,13.16
2023-04-11T08:29:28.530Z,13.63
2023-04-11T08:30:28.489Z,13.65
2023-04-11T08:31:28.614Z,13.59
2023-04-11T08:32:28.420Z,13.57
2023-04-11T08:33:28.480Z,13.74
2023-04-11T08:34:28.418Z,13.75
2023-04-11T08:35:28.469Z,14.05
2023-04-11T08:36:28.365Z,14.12
2023-04-11T08:37:28.389Z,14.53
2023-04-11T08:38:28.445Z,14.58
2023-04-11T08:39:28.493Z,14.84
2023-04-11T08:40:28.439Z,15.18
2023-04-11T08:41:28.328Z,15.39
2023-04-11T08:42:28.327Z,14.99
2023-04-11T08:43:28.318Z,14.62
2023-04-11T08:44:28.321Z,15.29
2023-04-11T08:45:28.345Z,15.94
2023-04-11T08:46:28.436Z,16.50
2023-04-11T08:47:28.345Z,16.78
2023-04-11T08:48:28.518Z,17.14
2023-04-11T08:49:28.332Z,16.83
2023-04-11T08:50:28.496Z,16.90
2023-04-11T08:51:28.308Z,17.19
2023-04-11T08:52:28.315Z,17.27
2023-04-11T08:53:28.237Z,17.23
2023-04-11T08:54:28.232Z,17.22
2023-04-11T08:55:28.432Z,17.23
2023-04-11T08:56:28.282Z,17.27
2023-04-11T08:57:28.236Z,17.64
2023-04-11T08:58:28.248Z,17.67
2023-04-11T08:59:28.214Z,17.68
2023-04-11T09:00:28.244Z,17.85
2023-04-11T09:01:28.246Z,18.03
2023-04-11T09:02:28.412Z,18.19
2023-04-11T09:03:28.268Z,17.83
2023-04-11T09:04:28.194Z,17.67
2023-04-11T09:05:28.196Z,17.92
2023-04-11T09:06:28.300Z,18.25
2023-04-11T09:07:28.199Z,18.23
2023-04-11T09:08:28.211Z,18.05
2023-04-11T09:09:28.219Z,17.78
2023-04-11T09:10:28.206Z,17.65
2023-04-11T09:11:28.198Z,17.39
2023-04-11T09:12:29.317Z,17.42
2023-04-11T09:13:28.266Z,17.56
2023-04-11T09:14:28.288Z,17.52
2023-04-11T09:15:28.346Z,17.79
2023-04-11T09:16:28.190Z,17.27
2023-04-11T09:17:28.151Z,17.20
2023-04-11T09:18:28.121Z,16.90
2023-04-11T09:19:28.122Z,16.75
2023-04-11T09:20:28.188Z,16.60
2023-04-11T09:21:28.187Z,16.35
2023-04-11T09:22:28.089Z,15.80
2023-04-11T09:23:28.091Z,15.36
2023-04-11T09:24:28.134Z,14.96
2023-04-11T09:25:28.124Z,15.07
2023-04-11T09:26:28.137Z,14.66
2023-04-11T09:27:28.144Z,14.43
2023-04-11T09:28:28.113Z,14.15
2023-04-11T09:29:28.084Z,13.90
2023-04-11T09:30:28.079Z,13.75
2023-04-11T09:31:28.087Z,13.67
2023-04-11T09:32:29.665Z,14.05
2023-04-11T09:33:28.043Z,14.48
2023-04-11T09:34:28.026Z,14.81
2023-04-11T09:35:28.059Z,15.04
2023-04-11T09:36:28.052Z,15.61
2023-04-11T09:37:28.127Z,16.13
2023-04-11T09:38:28.019Z,16.21
2023-04-11T09:39:28.138Z,16.49
2023-04-11T09:40:28.036Z,16.08
2023-04-11T09:41:28.014Z,16.21
2023-04-11T09:42:28.021Z,16.58
2023-04-11T09:43:28.063Z,16.58
2023-04-11T09:44:28.026Z,16.81
2023-04-11T09:45:28.050Z,16.46
2023-04-11T09:46:28.037Z,16.16
2023-04-11T09:47:27.985Z,16.16
2023-04-11T09:48:43.392Z,16.00
2023-04-11T09:49:27.974Z,15.79
2023-04-11T09:50:27.922Z,15.10
2023-04-11T09:51:36.645Z,14.68
2023-04-11T09:52:27.924Z,14.43
2023-04-11T09:53:27.946Z,13.87
2023-04-11T09:54:27.898Z,12.97
2023-04-11T09:55:27.970Z,12.68
2023-04-11T09:56:27.882Z,11.87
2023-04-11T09:57:27.902Z,11.45
2023-04-11T09:58:29.671Z,11.17
2023-04-11T09:59:27.869Z,11.07
2023-04-11T10:00:27.861Z,10.87
2023-04-11T10:01:27.926Z,10.74
2023-04-11T10:02:28.015Z,10.61
2023-04-11T10:03:27.975Z,10.34
2023-04-11T10:04:28.192Z,10.38
2023-04-11T10:05:27.988Z,9.95
2023-04-11T10:06:27.837Z,9.87
2023-04-11T10:07:27.815Z,10.01
2023-04-11T10:08:27.780Z,9.98
2023-04-11T10:09:27.793Z,9.95
2023-04-11T10:10:27.769Z,10.02
2023-04-11T10:11:27.806Z,9.87
2023-04-11T10:12:27.961Z,9.77
2023-04-11T10:13:27.780Z,9.72
2023-04-11T10:14:27.734Z,9.79
2023-04-11T10:15:27.718Z,9.82
2023-04-11T10:16:27.791Z,9.86
2023-04-11T10:17:27.736Z,9.89
2023-04-11T10:18:27.723Z,9.92
2023-04-11T10:19:27.688Z,9.84
2023-04-11T10:20:27.717Z,9.83
2023-04-11T10:21:27.682Z,9.59
2023-04-11T10:22:27.671Z,9.64
2023-04-11T10:23:27.661Z,9.61
2023-04-11T10:24:27.650Z,9.89
2023-04-11T10:25:27.676Z,9.97
2023-04-11T10:26:27.930Z,10.02
2023-04-11T10:27:27.649Z,10.13
2023-04-11T10:28:27.791Z,10.17
2023-04-11T10:29:27.593Z,10.35
2023-04-11T10:30:27.598Z,10.54
2023-04-11T10:31:27.604Z,10.67
2023-04-11T10:32:27.609Z,10.71
2023-04-11T10:33:27.556Z,10.84
2023-04-11T10:34:27.558Z,10.81
2023-04-11T10:35:27.550Z,10.86
2023-04-11T10:36:27.558Z,10.94
2023-04-11T10:37:27.585Z,11.26
2023-04-11T10:38:27.536Z,11.40
2023-04-11T10:39:27.532Z,11.48
2023-04-11T10:40:27.466Z,11.50
2023-04-11T10:41:27.585Z,11.54
2023-04-11T10:42:27.511Z,11.66
2023-04-11T10:43:27.493Z,11.78
2023-04-11T10:44:27.480Z,12.04
2023-04-11T10:45:27.449Z,12.25
2023-04-11T10:46:27.466Z,12.35
2023-04-11T10:47:27.431Z,12.49
2023-04-11T10:48:27.412Z,12.58
2023-04-11T10:49:27.426Z,12.93
2023-04-11T10:50:27.465Z,13.13
2023-04-11T10:51:27.438Z,13.19
2023-04-11T10:52:27.386Z,13.54
2023-04-11T10:53:27.402Z,13.74
2023-04-11T10:54:27.408Z,13.87
2023-04-11T10:55:27.335Z,14.17
2023-04-11T10:56:27.327Z,14.15
2023-04-11T10:57:27.350Z,13.90
2023-04-11T10:58:27.342Z,13.96
2023-04-11T10:59:27.335Z,14.20
2023-04-11T11:00:27.356Z,13.92
2023-04-11T11:01:37.274Z,14.23
2023-04-11T11:02:27.525Z,14.43
2023-04-11T11:03:27.468Z,14.58
2023-04-11T11:04:27.519Z,14.73
2023-04-11T11:05:27.254Z,14.96
2023-04-11T11:06:27.291Z,14.82
2023-04-11T11:07:27.238Z,14.70
2023-04-11T11:08:27.269Z,14.62
2023-04-11T11:09:27.267Z,14.62
2023-04-11T11:10:27.249Z,14.45
2023-04-11T11:11:27.251Z,14.44
2023-04-11T11:12:27.218Z,14.58
2023-04-11T11:13:27.213Z,14.62
2023-04-11T11:14:27.198Z,14.12
2023-04-11T11:15:27.256Z,13.60
2023-04-11T11:16:27.198Z,13.42
2023-04-11T11:17:27.220Z,12.58
2023-04-11T11:18:27.208Z,12.07
2023-04-11T11:19:27.181Z,11.29
2023-04-11T11:20:27.136Z,11.19
2023-04-11T11:22:27.217Z,10.89
2023-04-11T11:23:27.159Z,10.67
2023-04-11T11:24:27.088Z,10.60
2023-04-11T11:25:27.088Z,10.54
2023-04-11T11:26:27.108Z,10.61
2023-04-11T11:27:27.142Z,10.59
2023-04-11T11:29:27.056Z,10.72
2023-04-11T11:30:27.088Z,10.94
2023-04-11T11:31:27.160Z,10.97
2023-04-11T11:32:27.109Z,10.79
2023-04-11T11:33:27.057Z,11.00
2023-04-11T11:34:27.152Z,11.41
2023-04-11T11:35:27.008Z,11.52
2023-04-11T11:36:27.031Z,11.72
2023-04-11T11:37:26.995Z,11.90
2023-04-11T11:38:26.999Z,11.94
2023-04-11T11:39:26.972Z,11.30
2023-04-11T11:40:26.943Z,11.48
2023-04-11T11:41:26.944Z,11.47
2023-04-11T11:42:26.930Z,11.72
2023-04-11T11:43:26.932Z,11.97
2023-04-11T11:44:26.960Z,12.31
2023-04-11T11:45:27.018Z,12.27
2023-04-11T11:46:26.923Z,12.50
2023-04-11T11:47:26.980Z,12.70
2023-04-11T11:48:26.900Z,12.95
2023-04-11T11:49:26.924Z,13.15
2023-04-11T11:50:26.907Z,13.33
2023-04-11T11:51:26.879Z,13.19
2023-04-11T11:52:26.861Z,13.23
2023-04-11T11:53:26.884Z,13.41
2023-04-11T11:54:26.869Z,13.54
2023-04-11T11:55:26.835Z,13.56
2023-04-11T11:56:26.813Z,13.59
2023-04-11T11:57:26.841Z,13.60
2023-04-11T11:58:26.806Z,13.49
2023-04-11T11:59:26.783Z,13.25
2023-04-11T12:00:26.805Z,13.11
2023-04-11T12:01:26.778Z,13.15
2023-04-11T12:02:27.022Z,13.33
2023-04-11T12:03:26.916Z,13.37
2023-04-11T12:04:27.010Z,13.53
2023-04-11T12:05:26.847Z,13.62
2023-04-11T12:06:26.757Z,13.83
2023-04-11T12:07:26.745Z,13.83
2023-04-11T12:08:26.738Z,13.96
2023-04-11T12:09:26.734Z,13.87
2023-04-11T12:10:26.732Z,14.07
2023-04-11T12:11:26.713Z,13.97
2023-04-11T12:12:26.815Z,14.11
2023-04-11T12:13:26.724Z,13.96
2023-04-11T12:14:26.734Z,14.05
2023-04-11T12:15:26.673Z,13.96
2023-04-11T12:16:26.738Z,13.89
2023-04-11T12:17:26.752Z,13.96
2023-04-11T12:18:26.739Z,14.14
2023-04-11T12:19:26.655Z,14.25
2023-04-11T12:20:26.935Z,14.32
2023-04-11T12:21:26.626Z,14.50
2023-04-11T12:22:26.642Z,14.59
2023-04-11T12:23:26.621Z,14.51
2023-04-11T12:24:26.625Z,14.59
2023-04-11T12:25:26.624Z,14.84
2023-04-11T12:26:26.616Z,14.94
2023-04-11T12:27:26.594Z,14.97
2023-04-11T12:28:26.592Z,15.06
2023-04-11T12:29:26.803Z,15.15
2023-04-11T12:30:28.186Z,15.24
2023-04-11T12:31:26.623Z,15.02
2023-04-11T12:32:26.581Z,14.97
2023-04-11T12:33:26.530Z,14.89
2023-04-11T12:34:26.520Z,14.85
2023-04-11T12:35:26.586Z,14.92
2023-04-11T12:36:26.525Z,14.81
2023-04-11T12:37:26.597Z,14.77
2023-04-11T12:38:26.509Z,14.66
2023-04-11T12:39:26.487Z,14.65
2023-04-11T12:40:26.536Z,14.47
2023-04-11T12:42:27.362Z,14.44
2023-04-11T12:43:26.465Z,14.44
2023-04-11T12:44:26.483Z,14.28
2023-04-11T12:45:26.493Z,14.25
2023-04-11T12:46:26.435Z,14.30
2023-04-11T12:47:26.637Z,14.33
2023-04-11T12:48:26.468Z,14.25
2023-04-11T12:49:26.445Z,14.11
2023-04-11T12:50:26.440Z,14.30
2023-04-11T12:51:26.501Z,14.53
2023-04-11T12:52:26.459Z,14.58
2023-04-11T12:53:26.449Z,14.77
2023-04-11T12:54:26.400Z,14.89
2023-04-11T12:55:26.466Z,14.88
2023-04-11T12:56:26.391Z,15.03
2023-04-11T12:57:26.335Z,15.17
2023-04-11T12:58:26.381Z,15.22
2023-04-11T12:59:26.361Z,15.10